Time;durP1;ratioP1;P1;durP2;ratioP2;P2;SDS_P1;SDS_P2;PMS_P1;PMS_P2;Temp;Humidity;BMP_temperature;BMP_pressure;BME280_temperature;BME280_humidity;BME280_pressure;Samples;Min_cycle;Max_cycle;Signal;HPM_P1;HPM_P2
2024/04/11 00:02:10;;;;;;;5.22;0.88;;;;;;;;;;5372572;26;20029;-75
2024/04/11 00:04:42;;;;;;;7.20;0.80;;;;;;;;;;5370033;26;20032;-75
2024/04/11 00:07:12;;;;;;;4.47;0.88;;;;;;;;;;5371541;26;20364;-74
2024/04/11 00:09:43;;;;;;;3.50;1.42;;;;;;;;;;5371524;26;20028;-74
2024/04/11 00:12:14;;;;;;;3.58;0.60;;;;;;;;;;5371992;26;20024;-75
2024/04/11 00:14:46;;;;;;;5.55;1.05;;;;;;;;;;5371787;26;20024;-75
2024/04/11 00:17:17;;;;;;;2.83;0.80;;;;;;;;;;5371001;26;20020;-75
2024/04/11 00:19:48;;;;;;;2.10;0.63;;;;;;;;;;5372009;26;20024;-72
2024/04/11 00:22:20;;;;;;;3.22;0.70;;;;;;;;;;5371184;26;20020;-73
2024/04/11 00:24:51;;;;;;;3.47;0.68;;;;;;;;;;5371249;26;20020;-72
2024/04/11 00:27:22;;;;;;;3.63;0.80;;;;;;;;;;5353157;26;20037;-72
2024/04/11 00:29:52;;;;;;;3.50;0.93;;;;;;;;;;5336502;26;20032;-74
2024/04/11 00:32:25;;;;;;;5.68;1.00;;;;;;;;;;5337015;26;20107;-74
2024/04/11 00:34:57;;;;;;;2.90;0.70;;;;;;;;;;5336664;26;20021;-74
2024/04/11 00:37:31;;;;;;;2.67;0.90;;;;;;;;;;5336443;26;20480;-74
2024/04/11 00:40:01;;;;;;;4.40;1.00;;;;;;;;;;5336677;26;21222;-74
2024/04/11 00:42:32;;;;;;;2.05;0.63;;;;;;;;;;5336892;26;20029;-73
2024/04/11 00:45:04;;;;;;;2.10;0.60;;;;;;;;;;5337308;26;20025;-74
2024/04/11 00:47:40;;;;;;;1.75;0.80;;;;;;;;;;5335916;26;20032;-73
2024/04/11 00:50:11;;;;;;;1.92;0.82;;;;;;;;;;5334864;26;20001;-76
2024/04/11 00:52:43;;;;;;;3.05;1.70;;;;;;;;;;5336151;26;20032;-77
2024/04/11 00:55:15;;;;;;;4.20;0.90;;;;;;;;;;5336306;26;20042;-76
2024/04/11 00:57:46;;;;;;;3.17;0.70;;;;;;;;;;5336605;26;20013;-75
2024/04/11 01:00:18;;;;;;;8.45;1.38;;;;;;;;;;5399732;26;20031;-76
2024/04/11 01:02:49;;;;;;;1.65;0.68;;;;;;;;;;5406335;26;20478;-76
2024/04/11 01:05:21;;;;;;;10.30;1.20;;;;;;;;;;5406007;26;20482;-75
2024/04/11 01:07:55;;;;;;;4.88;1.00;;;;;;;;;;5406838;26;20039;-73
2024/04/11 01:10:26;;;;;;;2.30;0.90;;;;;;;;;;5406472;26;20023;-76
2024/04/11 01:12:57;;;;;;;4.07;1.20;;;;;;;;;;5434567;26;20023;-76
2024/04/11 01:15:29;;;;;;;2.35;0.90;;;;;;;;;;5401392;26;20532;-75
2024/04/11 01:18:00;;;;;;;3.25;0.70;;;;;;;;;;5399023;26;19995;-75
2024/04/11 01:20:32;;;;;;;2.33;1.00;;;;;;;;;;5404098;26;20020;-74
2024/04/11 01:23:03;;;;;;;3.05;1.00;;;;;;;;;;5403545;26;20034;-76
2024/04/11 01:25:36;;;;;;;2.17;1.00;;;;;;;;;;5406845;26;20031;-76
2024/04/11 01:28:09;;;;;;;6.65;1.00;;;;;;;;;;5406249;26;20028;-75
2024/04/11 01:30:39;;;;;;;5.20;1.08;;;;;;;;;;5406996;26;20020;-76
2024/04/11 01:33:14;;;;;;;3.95;1.10;;;;;;;;;;5406238;26;20031;-76
2024/04/11 01:35:46;;;;;;;4.25;1.10;;;;;;;;;;5405962;26;20024;-75
2024/04/11 01:38:17;;;;;;;3.17;0.90;;;;;;;;;;5406414;26;20154;-74
2024/04/11 01:40:48;;;;;;;3.25;0.98;;;;;;;;;;5405754;26;20024;-75
2024/04/11 01:43:18;;;;;;;4.93;1.30;;;;;;;;;;5433396;26;20027;-76
2024/04/11 01:45:50;;;;;;;2.40;0.90;;;;;;;;;;5405898;26;21099;-74
2024/04/11 01:48:21;;;;;;;4.43;1.08;;;;;;;;;;5406292;26;20491;-76
2024/04/11 01:50:52;;;;;;;2.30;1.10;;;;;;;;;;5405906;26;20051;-76
2024/04/11 01:53:23;;;;;;;4.97;1.13;;;;;;;;;;5405417;26;21104;-75
2024/04/11 01:55:54;;;;;;;6.75;1.15;;;;;;;;;;5406013;26;20023;-75
2024/04/11 01:58:26;;;;;;;7.05;1.10;;;;;;;;;;5405461;26;20099;-76
2024/04/11 02:01:09;;;;;;;3.92;0.85;;;;;;;;;;5405344;26;20043;-78
2024/04/11 02:03:40;;;;;;;3.40;1.00;;;;;;;;;;5406146;26;20028;-76
2024/04/11 02:06:13;;;;;;;2.70;1.20;;;;;;;;;;5406277;26;20040;-76
2024/04/11 02:08:49;;;;;;;1.40;0.80;;;;;;;;;;5406070;26;20035;-75
2024/04/11 02:11:20;;;;;;;7.68;1.60;;;;;;;;;;5402721;26;20019;-76
2024/04/11 02:13:51;;;;;;;4.30;1.45;;;;;;;;;;5405046;26;20023;-77
2024/04/11 02:16:22;;;;;;;4.75;1.30;;;;;;;;;;5403900;26;20027;-76
2024/04/11 02:18:55;;;;;;;5.10;1.00;;;;;;;;;;5403090;26;20024;-78
2024/04/11 02:21:25;;;;;;;2.20;0.75;;;;;;;;;;5405531;26;20048;-77
2024/04/11 02:23:55;;;;;;;2.17;0.82;;;;;;;;;;5405459;26;20020;-75
2024/04/11 02:26:27;;;;;;;5.88;1.35;;;;;;;;;;5404811;26;20002;-74
2024/04/11 02:28:58;;;;;;;3.95;1.27;;;;;;;;;;5405324;26;20027;-75
2024/04/11 02:31:29;;;;;;;2.45;1.05;;;;;;;;;;5405620;26;20322;-74
2024/04/11 02:33:59;;;;;;;2.08;1.00;;;;;;;;;;5406530;26;20363;-77
2024/04/11 02:36:30;;;;;;;2.22;0.80;;;;;;;;;;5408967;26;20478;-75
2024/04/11 02:39:01;;;;;;;4.93;1.00;;;;;;;;;;5408625;26;20023;-75
2024/04/11 02:41:32;;;;;;;3.78;0.90;;;;;;;;;;5408568;26;20490;-76
2024/04/11 02:44:04;;;;;;;2.72;1.00;;;;;;;;;;5408934;26;20097;-74
2024/04/11 02:46:35;;;;;;;5.40;1.10;;;;;;;;;;5408409;26;20009;-74
2024/04/11 02:49:07;;;;;;;3.90;1.40;;;;;;;;;;5409276;26;20019;-75
2024/04/11 02:51:38;;;;;;;3.70;1.00;;;;;;;;;;5408722;26;20031;-75
2024/04/11 02:54:09;;;;;;;2.33;1.10;;;;;;;;;;5409593;26;20027;-75
2024/04/11 02:56:41;;;;;;;2.03;0.90;;;;;;;;;;5409366;26;20501;-74
2024/04/11 02:59:12;;;;;;;5.13;0.93;;;;;;;;;;5407897;26;20024;-76
2024/04/11 03:01:43;;;;;;;6.63;1.05;;;;;;;;;;5408751;26;20036;-75
2024/04/11 03:04:16;;;;;;;2.35;1.05;;;;;;;;;;5412566;26;20487;-75
2024/04/11 03:06:49;;;;;;;2.22;1.00;;;;;;;;;;5410587;26;20023;-74
2024/04/11 03:09:20;;;;;;;1.40;1.00;;;;;;;;;;5408030;26;20035;-75
2024/04/11 03:11:50;;;;;;;3.15;1.05;;;;;;;;;;5408467;26;20031;-74
2024/04/11 03:14:21;;;;;;;4.57;1.17;;;;;;;;;;5407776;26;20029;-75
2024/04/11 03:16:52;;;;;;;3.90;1.10;;;;;;;;;;5407848;26;20025;-75
2024/04/11 03:19:25;;;;;;;5.45;0.98;;;;;;;;;;5407564;26;20486;-74
2024/04/11 03:21:56;;;;;;;3.30;0.90;;;;;;;;;;5407983;26;20006;-74
2024/04/11 03:24:26;;;;;;;3.20;1.10;;;;;;;;;;5408413;26;20193;-74
2024/04/11 03:26:57;;;;;;;4.43;0.95;;;;;;;;;;5407851;26;20587;-74
2024/04/11 03:29:28;;;;;;;6.75;1.17;;;;;;;;;;5408035;26;20466;-76
2024/04/11 03:31:58;;;;;;;5.85;1.40;;;;;;;;;;5408127;26;20023;-75
2024/04/11 03:34:29;;;;;;;4.63;1.20;;;;;;;;;;5405275;26;20047;-75
2024/04/11 03:37:00;;;;;;;2.95;1.20;;;;;;;;;;5408031;26;20020;-73
2024/04/11 03:39:32;;;;;;;4.32;1.00;;;;;;;;;;5407620;26;20023;-76
2024/04/11 03:42:03;;;;;;;4.20;1.00;;;;;;;;;;5407951;26;20023;-76
2024/04/11 03:44:35;;;;;;;4.88;1.17;;;;;;;;;;5407509;26;20023;-74
2024/04/11 03:47:08;;;;;;;2.67;1.20;;;;;;;;;;5406700;26;20031;-76
2024/04/11 03:49:39;;;;;;;1.98;1.10;;;;;;;;;;5435465;26;20006;-75
2024/04/11 03:52:10;;;;;;;2.67;1.10;;;;;;;;;;5407942;26;20024;-76
2024/04/11 03:54:41;;;;;;;3.63;1.38;;;;;;;;;;5407709;26;20023;-75
2024/04/11 03:57:13;;;;;;;3.58;1.50;;;;;;;;;;5407296;26;20043;-74
2024/04/11 03:59:44;;;;;;;8.98;1.60;;;;;;;;;;5407884;26;20032;-76
2024/04/11 04:02:15;;;;;;;2.90;1.10;;;;;;;;;;5408051;26;20651;-76
2024/04/11 04:04:45;;;;;;;6.30;1.40;;;;;;;;;;5406125;26;20023;-75
2024/04/11 04:07:16;;;;;;;3.22;1.20;;;;;;;;;;5407193;26;20031;-74
2024/04/11 04:09:48;;;;;;;2.08;1.08;;;;;;;;;;5409555;26;20020;-74
2024/04/11 04:12:18;;;;;;;6.60;1.35;;;;;;;;;;5417793;26;20047;-74
2024/04/11 04:14:49;;;;;;;3.50;1.20;;;;;;;;;;5416887;26;20032;-75
2024/04/11 04:17:23;;;;;;;4.63;1.17;;;;;;;;;;5417513;26;20035;-74
2024/04/11 04:19:54;;;;;;;4.88;1.40;;;;;;;;;;5408636;26;20035;-76
2024/04/11 04:22:25;;;;;;;10.90;1.70;;;;;;;;;;5407685;26;20019;-74
2024/04/11 04:24:55;;;;;;;7.18;1.45;;;;;;;;;;5407283;26;20025;-77
2024/04/11 04:27:27;;;;;;;2.83;1.15;;;;;;;;;;5406859;26;19995;-74
2024/04/11 04:29:59;;;;;;;3.97;1.17;;;;;;;;;;5407478;26;20364;-75
2024/04/11 04:32:30;;;;;;;1.35;1.08;;;;;;;;;;5407500;26;20019;-75
2024/04/11 04:35:00;;;;;;;4.47;1.40;;;;;;;;;;5407065;26;20020;-75
2024/04/11 04:37:31;;;;;;;7.53;1.48;;;;;;;;;;5406728;26;20019;-75
2024/04/11 04:40:02;;;;;;;3.03;1.13;;;;;;;;;;5406579;26;20393;-75
2024/04/11 04:42:33;;;;;;;4.28;1.33;;;;;;;;;;5407368;26;20020;-74
2024/04/11 04:45:04;;;;;;;2.50;1.02;;;;;;;;;;5406631;26;20035;-74
2024/04/11 04:47:40;;;;;;;2.85;1.40;;;;;;;;;;5406915;26;19999;-74
2024/04/11 04:50:12;;;;;;;6.20;1.27;;;;;;;;;;5407128;26;20031;-76
2024/04/11 04:52:43;;;;;;;8.13;1.42;;;;;;;;;;5406570;26;20838;-73
2024/04/11 04:55:17;;;;;;;2.13;1.05;;;;;;;;;;5406677;26;21086;-75
2024/04/11 04:57:49;;;;;;;5.97;1.50;;;;;;;;;;5406529;26;20039;-73
2024/04/11 05:00:24;;;;;;;4.93;1.50;;;;;;;;;;5407344;26;20015;-74
2024/04/11 05:02:56;;;;;;;3.75;1.05;;;;;;;;;;5434394;26;20360;-74
2024/04/11 05:05:27;;;;;;;2.20;1.25;;;;;;;;;;5407446;26;20019;-75
2024/04/11 05:08:00;;;;;;;4.95;1.05;;;;;;;;;;5407344;26;20012;-75
2024/04/11 05:10:34;;;;;;;3.08;1.50;;;;;;;;;;5407001;26;20023;-75
2024/04/11 05:13:10;;;;;;;3.13;1.00;;;;;;;;;;5405735;26;20010;-75
2024/04/11 05:15:40;;;;;;;5.55;1.10;;;;;;;;;;5406041;26;20043;-73
2024/04/11 05:18:13;;;;;;;3.47;1.00;;;;;;;;;;5406665;26;20365;-75
2024/04/11 05:20:45;;;;;;;6.50;1.30;;;;;;;;;;5406921;26;20023;-72
2024/04/11 05:23:15;;;;;;;2.50;1.00;;;;;;;;;;5406639;26;20028;-75
2024/04/11 05:25:46;;;;;;;5.55;1.02;;;;;;;;;;5406426;26;20032;-73
2024/04/11 05:28:17;;;;;;;2.97;1.10;;;;;;;;;;5405669;26;20024;-75
2024/04/11 05:30:48;;;;;;;1.80;1.00;;;;;;;;;;5406321;26;20039;-73
2024/04/11 05:33:18;;;;;;;2.80;1.00;;;;;;;;;;5406386;26;20019;-74
2024/04/11 05:35:49;;;;;;;2.72;0.88;;;;;;;;;;5406699;26;20036;-73
2024/04/11 05:38:20;;;;;;;2.78;1.17;;;;;;;;;;5406175;26;20051;-73
2024/04/11 05:40:52;;;;;;;8.23;1.30;;;;;;;;;;5406374;26;20462;-75
2024/04/11 05:43:22;;;;;;;3.78;1.13;;;;;;;;;;5406309;26;20035;-73
2024/04/11 05:46:09;;;;;;;4.03;0.88;;;;;;;;;;5405970;26;20039;-73
2024/04/11 05:48:40;;;;;;;2.28;0.93;;;;;;;;;;5404094;26;20086;-74
2024/04/11 05:51:12;;;;;;;3.10;1.08;;;;;;;;;;5406724;26;20478;-74
2024/04/11 05:53:43;;;;;;;2.83;1.00;;;;;;;;;;5404549;26;20035;-74
2024/04/11 05:56:15;;;;;;;1.30;0.93;;;;;;;;;;5405682;26;20019;-73
2024/04/11 05:58:49;;;;;;;3.83;1.20;;;;;;;;;;5406215;26;20534;-75
2024/04/11 06:01:20;;;;;;;2.08;1.00;;;;;;;;;;5405811;26;20378;-75
2024/04/11 06:03:51;;;;;;;2.22;1.05;;;;;;;;;;5404163;26;20794;-75
2024/04/11 06:06:24;;;;;;;4.03;0.80;;;;;;;;;;5405057;26;20355;-75
2024/04/11 06:09:00;;;;;;;3.45;1.13;;;;;;;;;;5405055;26;19995;-76
2024/04/11 06:11:33;;;;;;;3.53;1.05;;;;;;;;;;5404081;26;20027;-71
2024/04/11 06:14:05;;;;;;;4.55;1.58;;;;;;;;;;5404773;26;20027;-73
2024/04/11 06:16:39;;;;;;;1.70;0.93;;;;;;;;;;5405449;26;20032;-75
2024/04/11 06:19:13;;;;;;;2.70;1.00;;;;;;;;;;5404898;26;20067;-72
2024/04/11 06:21:47;;;;;;;1.83;1.05;;;;;;;;;;5405260;26;20023;-73
2024/04/11 06:24:18;;;;;;;4.32;0.93;;;;;;;;;;5405848;26;20429;-74
2024/04/11 06:26:48;;;;;;;5.88;1.00;;;;;;;;;;5406014;26;20036;-73
2024/04/11 06:29:22;;;;;;;3.03;1.27;;;;;;;;;;5405591;26;20027;-74
2024/04/11 06:31:54;;;;;;;8.48;1.40;;;;;;;;;;5405580;26;20031;-73
2024/04/11 06:34:27;;;;;;;9.05;1.25;;;;;;;;;;5405971;26;20027;-75
2024/04/11 06:36:59;;;;;;;1.60;0.90;;;;;;;;;;5405067;26;20028;-75
2024/04/11 06:39:29;;;;;;;1.95;1.60;;;;;;;;;;5405006;26;20359;-74
2024/04/11 06:42:02;;;;;;;8.93;1.42;;;;;;;;;;5405116;26;20024;-75
2024/04/11 06:44:32;;;;;;;0.80;0.80;;;;;;;;;;5405338;26;20027;-74
2024/04/11 06:47:03;;;;;;;3.95;1.35;;;;;;;;;;5405144;26;20043;-74
2024/04/11 06:49:35;;;;;;;0.93;0.90;;;;;;;;;;5404859;26;20027;-74
2024/04/11 06:52:16;;;;;;;3.15;1.30;;;;;;;;;;5404677;26;20019;-72
2024/04/11 06:54:46;;;;;;;4.97;1.15;;;;;;;;;;5405153;26;20466;-75
2024/04/11 06:57:21;;;;;;;5.63;1.40;;;;;;;;;;5405355;26;20024;-74
2024/04/11 06:59:55;;;;;;;4.57;1.55;;;;;;;;;;5405203;26;20463;-75
2024/04/11 07:02:26;;;;;;;4.82;1.15;;;;;;;;;;5405136;26;20032;-74
2024/04/11 07:04:56;;;;;;;4.07;1.17;;;;;;;;;;5404696;26;20361;-75
2024/04/11 07:07:27;;;;;;;6.07;1.50;;;;;;;;;;5404776;26;20039;-75
2024/04/11 07:09:58;;;;;;;3.25;1.40;;;;;;;;;;5431612;26;20005;-75
2024/04/11 07:12:29;;;;;;;3.80;1.45;;;;;;;;;;5405272;26;20019;-74
2024/04/11 07:15:00;;;;;;;2.25;1.10;;;;;;;;;;5404634;26;20034;-75
2024/04/11 07:17:30;;;;;;;10.15;1.30;;;;;;;;;;5405169;26;20031;-75
2024/04/11 07:20:01;;;;;;;3.33;1.13;;;;;;;;;;5404869;26;20580;-76
2024/04/11 07:22:44;;;;;;;3.05;1.33;;;;;;;;;;5408148;26;20027;-75
2024/04/11 07:25:16;;;;;;;2.67;1.10;;;;;;;;;;5407941;26;20047;-74
2024/04/11 07:27:51;;;;;;;4.68;1.40;;;;;;;;;;5405734;26;20031;-73
2024/04/11 07:30:24;;;;;;;6.38;1.58;;;;;;;;;;5408316;26;20039;-73
2024/04/11 07:32:56;;;;;;;3.92;1.83;;;;;;;;;;5407518;26;20031;-75
2024/04/11 07:35:26;;;;;;;4.63;1.50;;;;;;;;;;5408144;26;20470;-74
2024/04/11 07:38:02;;;;;;;5.07;1.67;;;;;;;;;;5407934;26;20023;-73
2024/04/11 07:40:32;;;;;;;;;;;;;;;;;;5408365;26;20707;-74
2024/04/11 07:43:08;;;;;;;5.45;2.13;;;;;;;;;;5408044;26;19949;-75
2024/04/11 07:45:42;;;;;;;2.22;1.38;;;;;;;;;;5408542;26;20031;-73
2024/04/11 07:48:12;;;;;;;1.50;1.40;;;;;;;;;;5408401;26;20024;-74
2024/04/11 07:50:47;;;;;;;2.85;1.23;;;;;;;;;;5408535;26;20483;-75
2024/04/11 07:53:18;;;;;;;10.38;2.05;;;;;;;;;;5408273;26;20375;-75
2024/04/11 07:55:51;;;;;;;11.98;1.83;;;;;;;;;;5435679;26;20047;-75
2024/04/11 07:58:23;;;;;;;5.60;1.50;;;;;;;;;;5407458;26;20470;-74
2024/04/11 08:00:54;;;;;;;7.45;1.88;;;;;;;;;;5407348;26;20032;-77
2024/04/11 08:03:25;;;;;;;5.20;1.80;;;;;;;;;;5407646;26;20031;-73
2024/04/11 08:05:56;;;;;;;7.50;1.52;;;;;;;;;;5435568;26;20020;-76
2024/04/11 08:08:26;;;;;;;5.10;1.60;;;;;;;;;;5407183;26;20453;-74
2024/04/11 08:11:02;;;;;;;6.88;1.42;;;;;;;;;;5407191;26;20031;-75
2024/04/11 08:13:34;;;;;;;5.15;1.73;;;;;;;;;;5407383;26;20309;-74
2024/04/11 08:16:10;;;;;;;4.10;1.42;;;;;;;;;;5407748;26;20788;-75
2024/04/11 08:18:40;;;;;;;3.45;1.70;;;;;;;;;;5406676;26;20043;-76
2024/04/11 08:21:13;;;;;;;6.03;1.58;;;;;;;;;;5408056;26;20036;-73
2024/04/11 08:23:46;;;;;;;6.05;1.63;;;;;;;;;;5407796;26;20031;-75
2024/04/11 08:26:16;;;;;;;6.15;1.60;;;;;;;;;;5407654;26;20707;-76
2024/04/11 08:28:47;;;;;;;4.25;1.42;;;;;;;;;;5406921;26;20745;-74
2024/04/11 08:31:19;;;;;;;1.95;1.15;;;;;;;;;;5406467;26;20027;-75
2024/04/11 08:33:49;;;;;;;3.33;1.40;;;;;;;;;;5407295;26;20019;-74
2024/04/11 08:36:20;;;;;;;2.35;1.25;;;;;;;;;;5407597;26;20027;-73
2024/04/11 08:38:50;;;;;;;5.40;1.30;;;;;;;;;;5407612;26;20031;-75
2024/04/11 08:41:21;;;;;;;4.80;1.50;;;;;;;;;;5408568;26;20652;-74
2024/04/11 08:43:56;;;;;;;3.47;1.10;;;;;;;;;;5407039;26;20031;-76
2024/04/11 08:46:26;;;;;;;3.75;1.40;;;;;;;;;;5406991;26;20020;-74
2024/04/11 08:48:56;;;;;;;4.30;1.60;;;;;;;;;;5406834;26;20735;-72
2024/04/11 08:51:29;;;;;;;4.18;1.55;;;;;;;;;;5407473;26;20028;-73
2024/04/11 08:54:08;;;;;;;3.35;1.77;;;;;;;;;;5406572;26;20023;-74
2024/04/11 08:56:39;;;;;;;;;;;;;;;;;;5408364;26;20031;-72
2024/04/11 08:59:12;;;;;;;1.75;1.20;;;;;;;;;;5407197;26;19957;-75
2024/04/11 09:01:45;;;;;;;4.35;1.42;;;;;;;;;;5406951;26;20473;-73
2024/04/11 09:04:18;;;;;;;2.70;1.27;;;;;;;;;;5404664;26;20000;-72
2024/04/11 09:06:53;;;;;;;4.25;1.48;;;;;;;;;;5406986;26;20028;-75
2024/04/11 09:09:23;;;;;;;4.90;1.48;;;;;;;;;;5407268;26;20405;-87
2024/04/11 09:11:53;;;;;;;4.55;1.52;;;;;;;;;;5407097;26;20032;-74
2024/04/11 09:14:25;;;;;;;3.95;1.60;;;;;;;;;;5406792;26;20692;-77
2024/04/11 09:17:04;;;;;;;2.85;1.65;;;;;;;;;;5405783;26;20011;-75
2024/04/11 09:19:40;;;;;;;2.88;1.33;;;;;;;;;;5407190;26;20027;-74
2024/04/11 09:22:14;;;;;;;2.58;1.50;;;;;;;;;;5406767;26;20490;-73
2024/04/11 09:24:45;;;;;;;2.92;1.38;;;;;;;;;;5406668;26;20024;-75
2024/04/11 09:27:17;;;;;;;5.82;1.58;;;;;;;;;;5406574;26;20020;-76
2024/04/11 09:29:48;;;;;;;2.63;1.52;;;;;;;;;;5406491;26;20462;-76
2024/04/11 09:32:21;;;;;;;1.83;1.02;;;;;;;;;;5406301;26;20031;-75
2024/04/11 09:34:57;;;;;;;5.50;1.20;;;;;;;;;;5404463;26;19996;-75
2024/04/11 09:37:29;;;;;;;3.90;1.17;;;;;;;;;;5433387;26;20023;-73
2024/04/11 09:40:11;;;;;;;3.28;1.50;;;;;;;;;;5406516;26;20027;-76
2024/04/11 09:42:43;;;;;;;;;;;;;;;;;;5406639;26;20031;-75
2024/04/11 09:45:18;;;;;;;1.55;0.65;;;;;;;;;;5405766;26;19949;-74
2024/04/11 09:47:51;;;;;;;2.03;0.75;;;;;;;;;;5406286;26;20015;-72
2024/04/11 09:50:24;;;;;;;2.20;0.90;;;;;;;;;;5405860;26;20023;-78
2024/04/11 09:53:06;;;;;;;5.40;1.40;;;;;;;;;;5404529;26;20027;-75
2024/04/11 09:55:37;;;;;;;5.47;1.45;;;;;;;;;;5406726;26;20741;-78
2024/04/11 09:58:07;;;;;;;2.58;1.00;;;;;;;;;;5434300;26;20363;-77
2024/04/11 10:01:04;;;;;;;2.53;1.20;;;;;;;;;;5409710;26;20349;-78
2024/04/11 10:03:42;;;;;;;4.38;0.77;;;;;;;;;;5435154;26;20047;-77
2024/04/11 10:06:24;;;;;;;2.97;1.00;;;;;;;;;;5407553;26;20042;-76
2024/04/11 10:09:09;;;;;;;1.83;0.85;;;;;;;;;;5405805;26;20763;-78
2024/04/11 10:11:45;;;;;;;7.75;1.27;;;;;;;;;;5404170;26;20023;-79
2024/04/11 10:14:17;;;;;;;1.80;0.80;;;;;;;;;;5405558;26;20035;-75
2024/04/11 10:16:53;;;;;;;2.60;0.90;;;;;;;;;;5405252;26;20400;-74
2024/04/11 10:19:31;;;;;;;2.08;0.90;;;;;;;;;;5403800;26;20426;-75
2024/04/11 10:22:07;;;;;;;2.00;0.88;;;;;;;;;;5405555;26;20031;-75
2024/04/11 10:24:40;;;;;;;5.60;1.30;;;;;;;;;;5404899;26;20027;-76
2024/04/11 10:27:19;;;;;;;3.30;0.95;;;;;;;;;;5405157;26;20031;-77
2024/04/11 10:29:50;;;;;;;2.53;1.00;;;;;;;;;;5405142;26;20032;-77
2024/04/11 10:32:26;;;;;;;2.95;0.80;;;;;;;;;;5405388;26;20135;-79
2024/04/11 10:34:57;;;;;;;4.90;0.98;;;;;;;;;;5406011;26;20195;-75
2024/04/11 10:37:33;;;;;;;3.95;0.82;;;;;;;;;;5405390;26;20024;-74
2024/04/11 10:40:03;;;;;;;2.10;0.90;;;;;;;;;;5403486;26;20027;-74
2024/04/11 10:42:37;;;;;;;1.63;0.75;;;;;;;;;;5405129;26;20366;-75
2024/04/11 10:45:17;;;;;;;2.78;0.73;;;;;;;;;;5375183;26;20032;-73
2024/04/11 10:47:48;;;;;;;6.00;1.02;;;;;;;;;;5370522;26;20020;-75
2024/04/11 10:50:23;;;;;;;4.07;1.10;;;;;;;;;;5369857;26;20006;-75
2024/04/11 10:52:57;;;;;;;1.67;0.90;;;;;;;;;;5369529;26;20032;-77
2024/04/11 10:55:35;;;;;;;3.33;0.70;;;;;;;;;;5371955;26;19996;-77
2024/04/11 11:06:44;;;;;;;3.90;0.90;;;;;;;;;;5372963;26;20032;-78
2024/04/11 11:09:12;;;;;;;4.78;0.93;;;;;;;;;;5367734;26;20032;-74
2024/04/11 11:11:44;;;;;;;3.58;0.70;;;;;;;;;;5372475;26;19997;-75
2024/04/11 11:14:24;;;;;;;5.55;1.10;;;;;;;;;;5372576;26;20020;-76
2024/04/11 11:17:01;;;;;;;6.28;1.35;;;;;;;;;;5372585;26;20024;-76
2024/04/11 11:19:34;;;;;;;1.90;0.98;;;;;;;;;;5372751;26;20375;-77
2024/04/11 11:22:04;;;;;;;7.88;1.48;;;;;;;;;;5399808;26;20014;-77
2024/04/11 11:24:34;;;;;;;11.45;4.30;;;;;;;;;;5373240;26;20024;-76
2024/04/11 11:27:10;;;;;;;9.32;4.35;;;;;;;;;;5373480;26;20028;-74
2024/04/11 11:29:42;;;;;;;6.47;3.00;;;;;;;;;;5399947;26;20468;-77
2024/04/11 11:32:19;;;;;;;4.80;2.10;;;;;;;;;;5370773;26;20541;-85
2024/04/11 11:34:51;;;;;;;7.93;2.45;;;;;;;;;;5372377;26;20380;-73
2024/04/11 11:37:23;;;;;;;8.00;1.98;;;;;;;;;;5371904;26;20020;-75
2024/04/11 11:39:55;;;;;;;9.63;3.75;;;;;;;;;;5372492;26;20028;-73
2024/04/11 11:42:31;;;;;;;11.02;3.50;;;;;;;;;;5372031;26;20028;-75
2024/04/11 11:45:08;;;;;;;3.30;1.52;;;;;;;;;;5372348;26;20021;-74
2024/04/11 11:47:45;;;;;;;4.50;1.00;;;;;;;;;;5372185;26;20032;-73
2024/04/11 11:50:23;;;;;;;2.80;0.85;;;;;;;;;;5373108;26;20020;-77
2024/04/11 11:52:55;;;;;;;4.65;0.90;;;;;;;;;;5372165;26;20024;-78
2024/04/11 11:55:27;;;;;;;4.80;1.02;;;;;;;;;;5372168;26;20032;-79
2024/04/11 11:58:03;;;;;;;2.67;1.05;;;;;;;;;;5372362;26;20024;-78
2024/04/11 12:00:49;;;;;;;3.53;0.75;;;;;;;;;;5372014;26;20028;-75
2024/04/11 12:03:21;;;;;;;4.28;1.00;;;;;;;;;;5372399;26;20391;-76
2024/04/11 12:06:04;;;;;;;1.85;0.80;;;;;;;;;;5371338;26;20372;-76
2024/04/11 12:08:37;;;;;;;3.92;1.15;;;;;;;;;;5374762;26;20032;-75
2024/04/11 12:13:42;;;;;;;4.47;1.00;;;;;;;;;;5372787;26;20028;-81
2024/04/11 12:16:15;;;;;;;9.70;1.30;;;;;;;;;;5377804;26;20016;-74
2024/04/11 12:18:48;;;;;;;4.13;1.17;;;;;;;;;;5373649;26;20024;-73
2024/04/11 12:21:34;;;;;;;5.45;1.52;;;;;;;;;;5372026;26;20032;-73
2024/04/11 12:24:07;;;;;;;4.88;1.50;;;;;;;;;;5372261;26;20028;-74
2024/04/11 12:26:39;;;;;;;2.92;1.02;;;;;;;;;;5401349;26;20028;-73
2024/04/11 12:29:12;;;;;;;4.82;1.40;;;;;;;;;;5372348;26;20025;-76
2024/04/11 12:31:43;;;;;;;6.25;1.35;;;;;;;;;;5371842;26;20632;-75
2024/04/11 12:34:14;;;;;;;9.50;2.08;;;;;;;;;;5373096;26;20032;-73
2024/04/11 12:36:57;;;;;;;7.82;1.58;;;;;;;;;;5372307;26;20032;-74
2024/04/11 12:39:41;;;;;;;4.80;1.70;;;;;;;;;;5372517;26;20024;-73
2024/04/11 12:42:17;;;;;;;10.15;3.08;;;;;;;;;;5372201;26;20055;-75
2024/04/11 12:44:48;;;;;;;10.85;4.30;;;;;;;;;;5372340;26;20028;-72
2024/04/11 12:47:38;;;;;;;3.90;1.92;;;;;;;;;;5371825;26;20024;-77
2024/04/11 12:50:13;;;;;;;5.78;1.60;;;;;;;;;;5371324;26;20036;-76
2024/04/11 12:52:49;;;;;;;6.30;1.02;;;;;;;;;;5371123;26;19996;-74
2024/04/11 12:55:24;;;;;;;2.30;0.90;;;;;;;;;;5371278;26;20371;-75
2024/04/11 12:58:06;;;;;;;4.43;1.02;;;;;;;;;;5371065;26;20031;-76
2024/04/11 13:00:57;;;;;;;2.78;1.10;;;;;;;;;;5371528;26;20020;-75
2024/04/11 13:03:52;;;;;;;6.00;3.33;;;;;;;;;;5371426;26;20029;-76
2024/04/11 13:06:37;;;;;;;2.90;1.13;;;;;;;;;;5370783;26;20028;-76
2024/04/11 13:09:10;;;;;;;5.80;1.00;;;;;;;;;;5370772;26;20025;-74
2024/04/11 13:11:48;;;;;;;3.90;1.05;;;;;;;;;;5371513;26;20479;-75
2024/04/11 13:14:24;;;;;;;7.22;1.27;;;;;;;;;;5371211;26;20025;-76
2024/04/11 13:17:03;;;;;;;4.15;1.10;;;;;;;;;;5371640;26;20024;-73
2024/04/11 13:19:36;;;;;;;5.85;1.02;;;;;;;;;;5369121;26;20020;-76
2024/04/11 13:22:11;;;;;;;3.42;1.00;;;;;;;;;;5371984;26;20462;-77
2024/04/11 13:24:43;;;;;;;4.43;1.20;;;;;;;;;;5371943;26;20024;-76
2024/04/11 13:27:28;;;;;;;6.97;1.77;;;;;;;;;;5370997;26;20372;-73
2024/04/11 13:29:59;;;;;;;4.90;0.90;;;;;;;;;;5370934;26;20032;-79
2024/04/11 13:32:31;;;;;;;3.78;1.30;;;;;;;;;;5371486;26;20032;-76
2024/04/11 13:35:07;;;;;;;5.10;1.00;;;;;;;;;;5371244;26;20024;-78
2024/04/11 13:37:37;;;;;;;6.93;1.08;;;;;;;;;;5371550;26;20032;-74
2024/04/11 13:43:00;;;;;;;1.58;0.80;;;;;;;;;;5369699;26;20471;-75
2024/04/11 13:45:35;;;;;;;1.20;0.60;;;;;;;;;;5365782;26;19996;-76
2024/04/11 13:48:07;;;;;;;0.77;0.50;;;;;;;;;;5367368;26;20020;-78
2024/04/11 13:50:44;;;;;;;0.30;0.25;;;;;;;;;;5367632;26;20024;-76
2024/04/11 13:53:20;;;;;;;0.82;0.30;;;;;;;;;;5367719;26;20331;-76
2024/04/11 13:55:55;;;;;;;0.80;0.22;;;;;;;;;;5367889;26;19996;-76
2024/04/11 13:58:25;;;;;;;1.20;0.20;;;;;;;;;;5366433;26;20036;-75
2024/04/11 14:01:04;;;;;;;0.10;0.10;;;;;;;;;;5367590;26;20024;-74
2024/04/11 14:08:42;;;;;;;0.30;0.20;;;;;;;;;;5367365;26;20481;-79
2024/04/11 14:11:17;;;;;;;0.15;0.15;;;;;;;;;;5367410;26;20040;-77
2024/04/11 14:13:48;;;;;;;0.10;0.10;;;;;;;;;;5368758;26;20062;-74
2024/04/11 14:16:19;;;;;;;2.33;0.20;;;;;;;;;;5367385;26;20024;-78
2024/04/11 14:18:50;;;;;;;0.57;0.20;;;;;;;;;;5367053;26;20024;-75
2024/04/11 14:24:15;;;;;;;0.88;0.20;;;;;;;;;;5366879;26;20459;-76
2024/04/11 14:29:22;;;;;;;1.38;0.08;;;;;;;;;;5366424;26;19996;-77
2024/04/11 14:31:52;;;;;;;0.20;0.20;;;;;;;;;;5394908;26;19996;-74
2024/04/11 14:35:08;;;;;;;1.10;0.15;;;;;;;;;;5365282;26;19996;-78
2024/04/11 14:40:06;;;;;;;0.20;0.10;;;;;;;;;;5367168;26;20020;-77
2024/04/11 14:42:37;;;;;;;0.08;0.08;;;;;;;;;;5366607;26;20036;-76
2024/04/11 14:45:07;;;;;;;0.10;0.10;;;;;;;;;;5367242;26;20405;-79
2024/04/11 14:47:40;;;;;;;1.27;0.30;;;;;;;;;;5367299;26;20020;-76
2024/04/11 14:50:18;;;;;;;1.25;0.20;;;;;;;;;;5366740;26;20551;-78
2024/04/11 14:52:53;;;;;;;0.30;0.30;;;;;;;;;;5368249;26;20028;-76
2024/04/11 14:55:29;;;;;;;0.40;0.10;;;;;;;;;;5366964;26;20012;-77
2024/04/11 14:58:00;;;;;;;0.10;0.10;;;;;;;;;;5397145;26;20028;-76
2024/04/11 15:00:59;;;;;;;0.20;0.10;;;;;;;;;;5368225;26;20052;-77
2024/04/11 15:03:30;;;;;;;1.90;0.20;;;;;;;;;;5367513;26;20024;-77
2024/04/11 15:06:04;;;;;;;0.30;0.10;;;;;;;;;;5366528;26;20028;-78
2024/04/11 15:08:35;;;;;;;0.10;0.10;;;;;;;;;;5367347;26;20021;-77
2024/04/11 15:11:11;;;;;;;0.80;0.15;;;;;;;;;;5366488;26;20025;-79
2024/04/11 15:13:44;;;;;;;1.25;0.20;;;;;;;;;;5366903;26;19997;-78
2024/04/11 15:16:49;;;;;;;0.20;0.20;;;;;;;;;;5392685;26;20040;-77
2024/04/11 15:19:15;;;;;;;0.10;0.10;;;;;;;;;;5366035;26;20036;-76
2024/04/11 15:21:55;;;;;;;1.55;0.20;;;;;;;;;;5366858;26;20467;-77
2024/04/11 15:24:26;;;;;;;0.10;0.10;;;;;;;;;;5366289;26;20032;-77
2024/04/11 15:27:00;;;;;;;0.20;0.20;;;;;;;;;;5366198;26;20452;-76
2024/04/11 15:29:57;;;;;;;0.38;0.10;;;;;;;;;;5366082;26;20024;-76
2024/04/11 15:32:32;;;;;;;1.30;0.10;;;;;;;;;;5366713;26;20024;-75
2024/04/11 15:35:10;;;;;;;0.77;0.30;;;;;;;;;;5367955;26;20020;-75
2024/04/11 15:38:16;;;;;;;0.10;0.10;;;;;;;;;;5364302;26;20491;-77
2024/04/11 15:40:51;;;;;;;0.22;0.10;;;;;;;;;;5363847;26;20001;-75
2024/04/11 15:43:26;;;;;;;0.20;0.10;;;;;;;;;;5369403;26;20006;-75
2024/04/11 15:45:57;;;;;;;0.20;0.20;;;;;;;;;;5369269;26;20014;-78
2024/04/11 15:48:35;;;;;;;0.35;0.30;;;;;;;;;;5369416;26;20024;-75